sensor_id;sensor_type;location;lat;lon;timestamp;pressure;altitude;pressure_sealevel;temperature;humidity
49178;BME280;35016;55.674;37.468;2022-07-10T11:28:09;98421.50;;;30.30;41.70
49178;BME280;35016;55.674;37.468;2022-07-10T11:30:48;98424.09;;;30.48;41.09
49178;BME280;35016;55.674;37.468;2022-07-10T11:33:16;98421.78;;;30.73;42.03
49178;BME280;35016;55.674;37.468;2022-07-10T11:35:48;98419.38;;;31.02;40.13
49178;BME280;35016;55.674;37.468;2022-07-10T11:38:22;98421.97;;;31.17;39.62
49178;BME280;35016;55.674;37.468;2022-07-10T11:40:49;98423.41;;;31.28;39.94
49178;BME280;35016;55.674;37.468;2022-07-10T11:43:17;98425.38;;;31.55;39.76
49178;BME280;35016;55.674;37.468;2022-07-10T11:45:44;98431.59;;;31.89;39.15
49178;BME280;35016;55.674;37.468;2022-07-10T11:48:21;98416.25;;;32.37;36.78
49178;BME280;35016;55.674;37.468;2022-07-10T11:50:49;98419.53;;;32.91;37.63
49178;BME280;35016;55.674;37.468;2022-07-10T11:53:26;98421.56;;;33.60;35.06
49178;BME280;35016;55.674;37.468;2022-07-10T11:55:54;98422.09;;;34.16;35.63
49178;BME280;35016;55.674;37.468;2022-07-10T11:58:21;98415.81;;;34.54;35.06
49178;BME280;35016;55.674;37.468;2022-07-10T12:01:00;98418.66;;;34.79;33.54
49178;BME280;35016;55.674;37.468;2022-07-10T12:03:28;98414.28;;;34.78;34.42
49178;BME280;35016;55.674;37.468;2022-07-10T12:06:01;98407.28;;;34.70;32.79
49178;BME280;35016;55.674;37.468;2022-07-10T12:08:29;98402.97;;;34.53;34.04
49178;BME280;35016;55.674;37.468;2022-07-10T12:10:56;98410.16;;;34.54;33.76
49178;BME280;35016;55.674;37.468;2022-07-10T12:13:24;98404.50;;;35.08;33.46
49178;BME280;35016;55.674;37.468;2022-07-10T12:15:51;98403.19;;;35.73;32.71
49178;BME280;35016;55.674;37.468;2022-07-10T12:18:20;98399.78;;;36.12;32.22
49178;BME280;35016;55.674;37.468;2022-07-10T12:20:49;98398.09;;;36.58;31.70
49178;BME280;35016;55.674;37.468;2022-07-10T12:23:17;98401.06;;;37.17;31.03
49178;BME280;35016;55.674;37.468;2022-07-10T12:25:47;98396.53;;;37.87;30.15
49178;BME280;35016;55.674;37.468;2022-07-10T12:28:17;98386.28;;;38.54;29.32
49178;BME280;35016;55.674;37.468;2022-07-10T12:30:53;98383.72;;;39.16;27.65
49178;BME280;35016;55.674;37.468;2022-07-10T12:33:23;98380.28;;;39.69;27.99
49178;BME280;35016;55.674;37.468;2022-07-10T12:35:57;98377.69;;;40.34;26.89
49178;BME280;35016;55.674;37.468;2022-07-10T12:38:26;98370.03;;;40.99;26.42
49178;BME280;35016;55.674;37.468;2022-07-10T12:41:10;98363.56;;;41.68;24.83
49178;BME280;35016;55.674;37.468;2022-07-10T12:43:38;98365.09;;;41.90;24.96
49178;BME280;35016;55.674;37.468;2022-07-10T12:46:19;98366.66;;;42.11;23.42
49178;BME280;35016;55.674;37.468;2022-07-10T12:49:04;98365.44;;;42.18;23.20
49178;BME280;35016;55.674;37.468;2022-07-10T12:51:34;98379.06;;;42.08;24.06
49178;BME280;35016;55.674;37.468;2022-07-10T12:54:34;98369.63;;;41.76;23.35
49178;BME280;35016;55.674;37.468;2022-07-10T12:57:03;98362.50;;;41.31;23.85
49178;BME280;35016;55.674;37.468;2022-07-10T12:59:35;98371.22;;;41.07;22.98
49178;BME280;35016;55.674;37.468;2022-07-10T13:02:21;98373.34;;;41.12;23.39
49178;BME280;35016;55.674;37.468;2022-07-10T13:04:53;98358.34;;;41.11;23.01
49178;BME280;35016;55.674;37.468;2022-07-10T13:07:31;98361.69;;;41.10;22.94
49178;BME280;35016;55.674;37.468;2022-07-10T13:09:59;98361.91;;;40.77;23.61
49178;BME280;35016;55.674;37.468;2022-07-10T13:12:31;98369.34;;;40.30;24.07
49178;BME280;35016;55.674;37.468;2022-07-10T13:15:00;98345.16;;;39.81;24.30
49178;BME280;35016;55.674;37.468;2022-07-10T13:17:28;98338.94;;;39.20;24.80
49178;BME280;35016;55.674;37.468;2022-07-10T13:19:55;98341.03;;;38.78;24.81
49178;BME280;35016;55.674;37.468;2022-07-10T13:22:24;98332.38;;;38.72;25.03
49178;BME280;35016;55.674;37.468;2022-07-10T13:24:51;98335.63;;;38.89;25.04
49178;BME280;35016;55.674;37.468;2022-07-10T13:27:18;98341.72;;;38.96;24.80
49178;BME280;35016;55.674;37.468;2022-07-10T13:29:46;98346.19;;;38.88;24.92
49178;BME280;35016;55.674;37.468;2022-07-10T13:32:14;98344.72;;;38.51;25.40
49178;BME280;35016;55.674;37.468;2022-07-10T13:34:41;98349.50;;;37.80;25.60
49178;BME280;35016;55.674;37.468;2022-07-10T13:37:09;98330.63;;;37.01;26.64
49178;BME280;35016;55.674;37.468;2022-07-10T13:39:40;98323.94;;;36.23;27.24
49178;BME280;35016;55.674;37.468;2022-07-10T13:42:07;98321.19;;;35.54;28.09
49178;BME280;35016;55.674;37.468;2022-07-10T13:44:34;98321.09;;;34.85;28.31
49178;BME280;35016;55.674;37.468;2022-07-10T13:47:01;98310.13;;;34.36;29.03
49178;BME280;35016;55.674;37.468;2022-07-10T13:49:28;98309.88;;;33.89;29.69
49178;BME280;35016;55.674;37.468;2022-07-10T13:51:55;98313.94;;;33.43;30.39
49178;BME280;35016;55.674;37.468;2022-07-10T13:54:23;98323.00;;;33.02;30.84
49178;BME280;35016;55.674;37.468;2022-07-10T13:56:50;98341.44;;;32.66;31.33
49178;BME280;35016;55.674;37.468;2022-07-10T13:59:17;98340.72;;;32.26;31.81
49178;BME280;35016;55.674;37.468;2022-07-10T14:01:44;98343.09;;;31.88;32.28
49178;BME280;35016;55.674;37.468;2022-07-10T14:04:11;98342.88;;;31.56;33.01
49178;BME280;35016;55.674;37.468;2022-07-10T14:06:38;98355.88;;;31.23;33.40
49178;BME280;35016;55.674;37.468;2022-07-10T14:09:06;98359.09;;;30.94;33.86
49178;BME280;35016;55.674;37.468;2022-07-10T14:11:33;98378.72;;;30.64;34.65
49178;BME280;35016;55.674;37.468;2022-07-10T14:14:01;98388.66;;;30.34;35.13
49178;BME280;35016;55.674;37.468;2022-07-10T14:16:28;98383.03;;;30.04;35.28
49178;BME280;35016;55.674;37.468;2022-07-10T14:18:55;98394.50;;;29.75;35.56
49178;BME280;35016;55.674;37.468;2022-07-10T14:21:22;98409.53;;;29.51;36.14
49178;BME280;35016;55.674;37.468;2022-07-10T14:23:54;98406.09;;;29.29;36.40
49178;BME280;35016;55.674;37.468;2022-07-10T14:26:23;98436.53;;;29.09;36.88
49178;BME280;35016;55.674;37.468;2022-07-10T14:28:51;98525.16;;;28.91;37.16
49178;BME280;35016;55.674;37.468;2022-07-10T14:31:18;98523.72;;;28.44;37.62
49178;BME280;35016;55.674;37.468;2022-07-10T14:33:46;98576.66;;;27.51;38.89
49178;BME280;35016;55.674;37.468;2022-07-10T14:36:13;98602.28;;;26.33;40.82
49178;BME280;35016;55.674;37.468;2022-07-10T14:38:40;98645.50;;;25.15;42.74
49178;BME280;35016;55.674;37.468;2022-07-10T14:41:08;98663.88;;;24.21;44.92
49178;BME280;35016;55.674;37.468;2022-07-10T14:43:40;98693.81;;;23.31;46.69
49178;BME280;35016;55.674;37.468;2022-07-10T14:46:08;98699.50;;;22.68;49.10
49178;BME280;35016;55.674;37.468;2022-07-10T14:48:36;98671.63;;;22.10;50.71
49178;BME280;35016;55.674;37.468;2022-07-10T14:51:04;98685.69;;;21.61;52.36
49178;BME280;35016;55.674;37.468;2022-07-10T14:53:31;98683.75;;;21.22;53.77
49178;BME280;35016;55.674;37.468;2022-07-10T14:56:04;98677.28;;;20.90;56.42
49178;BME280;35016;55.674;37.468;2022-07-10T14:58:32;98675.25;;;20.62;55.64
49178;BME280;35016;55.674;37.468;2022-07-10T15:01:20;98649.44;;;20.42;56.65
49178;BME280;35016;55.674;37.468;2022-07-10T15:03:47;98613.19;;;20.28;58.08
49178;BME280;35016;55.674;37.468;2022-07-10T15:06:14;98599.75;;;20.15;58.91
49178;BME280;35016;55.674;37.468;2022-07-10T15:08:41;98573.63;;;19.96;58.80
49178;BME280;35016;55.674;37.468;2022-07-10T15:11:08;98581.88;;;19.96;59.15
49178;BME280;35016;55.674;37.468;2022-07-10T15:13:35;98582.66;;;19.97;59.37
49178;BME280;35016;55.674;37.468;2022-07-10T15:16:02;98576.03;;;19.98;59.86
49178;BME280;35016;55.674;37.468;2022-07-10T15:18:30;98570.28;;;20.03;60.61
49178;BME280;35016;55.674;37.468;2022-07-10T15:20:57;98565.69;;;20.07;61.09
49178;BME280;35016;55.674;37.468;2022-07-10T15:23:25;98555.59;;;20.11;61.19
49178;BME280;35016;55.674;37.468;2022-07-10T15:25:55;98565.31;;;20.21;60.95
49178;BME280;35016;55.674;37.468;2022-07-10T15:28:25;98548.69;;;20.29;61.13
49178;BME280;35016;55.674;37.468;2022-07-10T15:30:52;98541.34;;;20.33;60.78
49178;BME280;35016;55.674;37.468;2022-07-10T15:33:19;98542.59;;;20.36;60.82
49178;BME280;35016;55.674;37.468;2022-07-10T15:35:46;98538.59;;;20.33;60.21
49178;BME280;35016;55.674;37.468;2022-07-10T15:38:13;98555.47;;;20.32;60.68
49178;BME280;35016;55.674;37.468;2022-07-10T15:40:40;98545.13;;;20.29;61.15
49178;BME280;35016;55.674;37.468;2022-07-10T15:43:07;98556.72;;;20.34;61.24
49178;BME280;35016;55.674;37.468;2022-07-10T15:45:34;98531.13;;;20.34;61.91
49178;BME280;35016;55.674;37.468;2022-07-10T15:48:01;98518.16;;;20.34;61.31
49178;BME280;35016;55.674;37.468;2022-07-10T15:50:28;98525.72;;;20.37;61.92
49178;BME280;35016;55.674;37.468;2022-07-10T15:53:00;98529.19;;;20.34;61.78
49178;BME280;35016;55.674;37.468;2022-07-10T15:55:27;98521.25;;;20.33;61.66
49178;BME280;35016;55.674;37.468;2022-07-10T15:57:54;98523.22;;;20.32;62.14
49178;BME280;35016;55.674;37.468;2022-07-10T16:00:21;98524.47;;;20.35;62.61
49178;BME280;35016;55.674;37.468;2022-07-10T16:02:51;98518.84;;;20.31;62.96
49178;BME280;35016;55.674;37.468;2022-07-10T16:05:25;98517.81;;;20.24;63.69
49178;BME280;35016;55.674;37.468;2022-07-10T16:07:55;98491.81;;;20.09;63.64
49178;BME280;35016;55.674;37.468;2022-07-10T16:10:22;98501.38;;;19.99;63.86
49178;BME280;35016;55.674;37.468;2022-07-10T16:12:49;98516.03;;;19.91;64.19
49178;BME280;35016;55.674;37.468;2022-07-10T16:15:16;98520.28;;;19.89;64.79
49178;BME280;35016;55.674;37.468;2022-07-10T16:17:46;98532.31;;;19.84;65.67
49178;BME280;35016;55.674;37.468;2022-07-10T16:20:13;98548.47;;;19.86;65.43
49178;BME280;35016;55.674;37.468;2022-07-10T16:22:42;98569.47;;;19.90;65.82
49178;BME280;35016;55.674;37.468;2022-07-10T16:25:09;98571.53;;;19.93;66.23
49178;BME280;35016;55.674;37.468;2022-07-10T16:27:54;98573.63;;;19.96;66.10
49178;BME280;35016;55.674;37.468;2022-07-10T16:30:21;98581.53;;;19.98;66.57
49178;BME280;35016;55.674;37.468;2022-07-10T16:32:49;98575.66;;;19.99;66.76
49178;BME280;35016;55.674;37.468;2022-07-10T16:35:23;98587.13;;;20.01;66.67
49178;BME280;35016;55.674;37.468;2022-07-10T16:37:50;98609.16;;;20.01;66.88
49178;BME280;35016;55.674;37.468;2022-07-10T16:40:17;98638.63;;;20.01;67.14
49178;BME280;35016;55.674;37.468;2022-07-10T16:42:44;98697.00;;;20.06;67.05
49178;BME280;35016;55.674;37.468;2022-07-10T16:45:11;98683.25;;;20.06;67.19
49178;BME280;35016;55.674;37.468;2022-07-10T16:47:38;98626.13;;;20.03;67.56
49178;BME280;35016;55.674;37.468;2022-07-10T16:50:06;98612.81;;;19.93;67.80
49178;BME280;35016;55.674;37.468;2022-07-10T16:52:33;98592.72;;;19.80;67.71
49178;BME280;35016;55.674;37.468;2022-07-10T16:55:04;98590.44;;;19.70;67.87
49178;BME280;35016;55.674;37.468;2022-07-10T16:57:31;98589.84;;;19.65;68.20
49178;BME280;35016;55.674;37.468;2022-07-10T17:00:03;98594.06;;;19.62;68.47
49178;BME280;35016;55.674;37.468;2022-07-10T17:02:30;98579.53;;;19.62;68.65
49178;BME280;35016;55.674;37.468;2022-07-10T17:04:57;98583.88;;;19.63;68.64
49178;BME280;35016;55.674;37.468;2022-07-10T17:07:24;98586.78;;;19.66;68.79
49178;BME280;35016;55.674;37.468;2022-07-10T17:09:51;98573.94;;;19.70;68.95
49178;BME280;35016;55.674;37.468;2022-07-10T17:12:18;98561.91;;;19.75;69.23
49178;BME280;35016;55.674;37.468;2022-07-10T17:14:46;98549.41;;;19.77;69.17
49178;BME280;35016;55.674;37.468;2022-07-10T17:17:13;98530.94;;;19.78;69.43
49178;BME280;35016;55.674;37.468;2022-07-10T17:19:40;98529.34;;;19.77;69.32
49178;BME280;35016;55.674;37.468;2022-07-10T17:22:07;98527.75;;;19.76;69.59
49178;BME280;35016;55.674;37.468;2022-07-10T17:24:39;98531.19;;;19.73;69.50
49178;BME280;35016;55.674;37.468;2022-07-10T17:27:06;98547.56;;;19.69;69.47
49178;BME280;35016;55.674;37.468;2022-07-10T17:29:41;98539.53;;;19.64;69.65
49178;BME280;35016;55.674;37.468;2022-07-10T17:32:08;98547.31;;;19.62;69.13
49178;BME280;35016;55.674;37.468;2022-07-10T17:34:35;98548.47;;;19.61;69.33
49178;BME280;35016;55.674;37.468;2022-07-10T17:37:02;98574.81;;;19.62;69.53
49178;BME280;35016;55.674;37.468;2022-07-10T17:39:30;98597.44;;;19.68;69.37
49178;BME280;35016;55.674;37.468;2022-07-10T17:41:58;98583.69;;;19.68;69.37
49178;BME280;35016;55.674;37.468;2022-07-10T17:44:25;98583.69;;;19.68;69.65
49178;BME280;35016;55.674;37.468;2022-07-10T17:46:53;98587.56;;;19.67;69.43
49178;BME280;35016;55.674;37.468;2022-07-10T17:49:20;98596.28;;;19.69;69.41
49178;BME280;35016;55.674;37.468;2022-07-10T17:51:47;98594.34;;;19.69;69.87
49178;BME280;35016;55.674;37.468;2022-07-10T17:54:15;98583.09;;;19.74;69.88
49178;BME280;35016;55.674;37.468;2022-07-10T17:56:42;98596.97;;;19.78;70.11
49178;BME280;35016;55.674;37.468;2022-07-10T17:59:11;98594.22;;;19.78;70.27
49178;BME280;35016;55.674;37.468;2022-07-10T18:01:38;98588.72;;;19.78;70.36
49178;BME280;35016;55.674;37.468;2022-07-10T18:04:06;98583.09;;;19.74;70.42
49178;BME280;35016;55.674;37.468;2022-07-10T18:06:33;98589.41;;;19.75;70.35
49178;BME280;35016;55.674;37.468;2022-07-10T18:09:00;98602.38;;;19.74;70.45
49178;BME280;35016;55.674;37.468;2022-07-10T18:11:27;98614.50;;;19.73;70.50
49178;BME280;35016;55.674;37.468;2022-07-10T18:13:54;98603.06;;;19.71;70.98
49178;BME280;35016;55.674;37.468;2022-07-10T18:16:22;98609.69;;;19.70;70.87
49178;BME280;35016;55.674;37.468;2022-07-10T18:18:52;98627.19;;;19.66;71.18
49178;BME280;35016;55.674;37.468;2022-07-10T18:21:22;98612.34;;;19.67;71.36
49178;BME280;35016;55.674;37.468;2022-07-10T18:23:53;98612.97;;;19.64;71.12
49178;BME280;35016;55.674;37.468;2022-07-10T18:26:29;98616.19;;;19.66;71.14
49178;BME280;35016;55.674;37.468;2022-07-10T18:28:59;98601.19;;;19.63;70.77
49178;BME280;35016;55.674;37.468;2022-07-10T18:31:27;98605.88;;;19.63;70.89
49178;BME280;35016;55.674;37.468;2022-07-10T18:33:55;98606.69;;;19.63;70.81
49178;BME280;35016;55.674;37.468;2022-07-10T18:36:41;98608.63;;;19.63;71.27
49178;BME280;35016;55.674;37.468;2022-07-10T18:39:08;98591.22;;;19.59;70.72
49178;BME280;35016;55.674;37.468;2022-07-10T18:41:44;98594.41;;;19.61;70.94
49178;BME280;35016;55.674;37.468;2022-07-10T18:44:12;98589.59;;;19.58;70.79
49178;BME280;35016;55.674;37.468;2022-07-10T18:46:40;98592.00;;;19.59;70.92
49178;BME280;35016;55.674;37.468;2022-07-10T18:49:07;98594.75;;;19.59;70.82
49178;BME280;35016;55.674;37.468;2022-07-10T18:51:34;98590.06;;;19.60;70.77
49178;BME280;35016;55.674;37.468;2022-07-10T18:54:03;98595.56;;;19.60;70.82
49178;BME280;35016;55.674;37.468;2022-07-10T18:56:30;98589.72;;;19.61;70.58
49178;BME280;35016;55.674;37.468;2022-07-10T18:58:57;98596.38;;;19.60;70.75
49178;BME280;35016;55.674;37.468;2022-07-10T19:01:24;98596.69;;;19.59;70.63
49178;BME280;35016;55.674;37.468;2022-07-10T19:03:52;98592.34;;;19.58;70.36
49178;BME280;35016;55.674;37.468;2022-07-10T19:06:21;98603.59;;;19.65;70.55
49178;BME280;35016;55.674;37.468;2022-07-10T19:08:49;98593.38;;;19.65;70.40
49178;BME280;35016;55.674;37.468;2022-07-10T19:11:18;98590.44;;;19.70;70.38
49178;BME280;35016;55.674;37.468;2022-07-10T19:13:45;98586.19;;;19.73;70.13
49178;BME280;35016;55.674;37.468;2022-07-10T19:16:12;98583.78;;;19.71;70.02
49178;BME280;35016;55.674;37.468;2022-07-10T19:18:42;98587.81;;;19.74;69.67
49178;BME280;35016;55.674;37.468;2022-07-10T19:21:15;98578.63;;;19.70;69.42
49178;BME280;35016;55.674;37.468;2022-07-10T19:23:47;98587.00;;;19.73;69.55
49178;BME280;35016;55.674;37.468;2022-07-10T19:26:14;98580.34;;;19.74;69.20
49178;BME280;35016;55.674;37.468;2022-07-10T19:28:42;98576.00;;;19.73;69.15
49178;BME280;35016;55.674;37.468;2022-07-10T19:31:10;98582.75;;;19.76;68.97
49178;BME280;35016;55.674;37.468;2022-07-10T19:33:39;98582.31;;;19.74;68.91
49178;BME280;35016;55.674;37.468;2022-07-10T19:36:10;98588.84;;;19.69;68.77
49178;BME280;35016;55.674;37.468;2022-07-10T19:38:45;98574.63;;;19.67;68.57
49178;BME280;35016;55.674;37.468;2022-07-10T19:41:15;98563.94;;;19.66;68.30
49178;BME280;35016;55.674;37.468;2022-07-10T19:43:55;98574.00;;;19.62;68.15
49178;BME280;35016;55.674;37.468;2022-07-10T19:46:23;98622.66;;;19.70;68.30
49178;BME280;35016;55.674;37.468;2022-07-10T19:48:50;98647.28;;;19.66;68.02
49178;BME280;35016;55.674;37.468;2022-07-10T19:51:22;98663.56;;;19.71;68.32
49178;BME280;35016;55.674;37.468;2022-07-10T19:53:52;98651.97;;;19.66;68.27
49178;BME280;35016;55.674;37.468;2022-07-10T19:56:20;98655.78;;;19.73;68.08
49178;BME280;35016;55.674;37.468;2022-07-10T19:59:08;98669.19;;;19.75;67.80
49178;BME280;35016;55.674;37.468;2022-07-10T20:01:35;98651.09;;;19.74;67.81
49178;BME280;35016;55.674;37.468;2022-07-10T20:04:05;98632.03;;;19.69;67.92
49178;BME280;35016;55.674;37.468;2022-07-10T20:06:39;98647.59;;;19.65;67.65
49178;BME280;35016;55.674;37.468;2022-07-10T20:09:07;98663.09;;;19.69;67.43
49178;BME280;35016;55.674;37.468;2022-07-10T20:11:34;98660.13;;;19.74;67.75
49178;BME280;35016;55.674;37.468;2022-07-10T20:14:02;98650.63;;;19.72;67.49
49178;BME280;35016;55.674;37.468;2022-07-10T20:16:32;98636.59;;;19.65;67.50
49178;BME280;35016;55.674;37.468;2022-07-10T20:18:59;98635.34;;;19.62;67.77
49178;BME280;35016;55.674;37.468;2022-07-10T20:21:27;98646.34;;;19.62;67.73
49178;BME280;35016;55.674;37.468;2022-07-10T20:23:54;98643.59;;;19.62;67.76
49178;BME280;35016;55.674;37.468;2022-07-10T20:26:21;98648.97;;;19.59;67.95
49178;BME280;35016;55.674;37.468;2022-07-10T20:28:48;98645.28;;;19.55;68.13
49178;BME280;35016;55.674;37.468;2022-07-10T20:31:15;98654.34;;;19.55;67.88
49178;BME280;35016;55.674;37.468;2022-07-10T20:33:42;98661.31;;;19.53;68.04
49178;BME280;35016;55.674;37.468;2022-07-10T20:36:13;98644.22;;;19.47;68.13
49178;BME280;35016;55.674;37.468;2022-07-10T20:38:59;98651.66;;;19.46;68.07
49178;BME280;35016;55.674;37.468;2022-07-10T20:41:26;98651.66;;;19.46;68.55
49178;BME280;35016;55.674;37.468;2022-07-10T20:43:53;98638.25;;;19.45;68.63
49178;BME280;35016;55.674;37.468;2022-07-10T20:46:21;98649.72;;;19.47;68.55
49178;BME280;35016;55.674;37.468;2022-07-10T20:48:48;98636.88;;;19.51;68.66
49178;BME280;35016;55.674;37.468;2022-07-10T20:51:15;98635.44;;;19.54;68.79
49178;BME280;35016;55.674;37.468;2022-07-10T20:53:42;98619.41;;;19.56;68.99
49178;BME280;35016;55.674;37.468;2022-07-10T20:56:10;98621.56;;;19.62;68.78
49178;BME280;35016;55.674;37.468;2022-07-10T20:58:37;98615.88;;;19.67;68.73
49178;BME280;35016;55.674;37.468;2022-07-10T21:01:05;98607.75;;;19.71;68.74
49178;BME280;35016;55.674;37.468;2022-07-10T21:03:32;98598.34;;;19.72;68.66
49178;BME280;35016;55.674;37.468;2022-07-10T21:05:59;98594.47;;;19.73;68.55
49178;BME280;35016;55.674;37.468;2022-07-10T21:08:26;98594.47;;;19.73;68.52
49178;BME280;35016;55.674;37.468;2022-07-10T21:10:53;98594.09;;;19.74;68.66
49178;BME280;35016;55.674;37.468;2022-07-10T21:13:20;98579.91;;;19.72;68.76
49178;BME280;35016;55.674;37.468;2022-07-10T21:15:54;98579.91;;;19.72;68.48
49178;BME280;35016;55.674;37.468;2022-07-10T21:18:22;98572.44;;;19.73;68.51
49178;BME280;35016;55.674;37.468;2022-07-10T21:20:53;98572.66;;;19.68;68.67
49178;BME280;35016;55.674;37.468;2022-07-10T21:23:20;98597.19;;;19.73;68.60
49178;BME280;35016;55.674;37.468;2022-07-10T21:25:47;98582.19;;;19.70;68.82
49178;BME280;35016;55.674;37.468;2022-07-10T21:28:14;98580.59;;;19.69;68.80
49178;BME280;35016;55.674;37.468;2022-07-10T21:30:42;98581.72;;;19.68;68.86
49178;BME280;35016;55.674;37.468;2022-07-10T21:33:09;98579.78;;;19.69;69.17
49178;BME280;35016;55.674;37.468;2022-07-10T21:35:36;98579.78;;;19.69;68.91
49178;BME280;35016;55.674;37.468;2022-07-10T21:38:05;98587.22;;;19.68;69.10
49178;BME280;35016;55.674;37.468;2022-07-10T21:40:32;98587.56;;;19.67;69.16
49178;BME280;35016;55.674;37.468;2022-07-10T21:42:59;98598.22;;;19.68;69.22
49178;BME280;35016;55.674;37.468;2022-07-10T21:45:26;98588.69;;;19.66;69.42
49178;BME280;35016;55.674;37.468;2022-07-10T21:47:53;98606.03;;;19.66;69.35
49178;BME280;35016;55.674;37.468;2022-07-10T21:50:20;98603.59;;;19.65;69.32
49178;BME280;35016;55.674;37.468;2022-07-10T21:52:47;98607.16;;;19.65;69.25
49178;BME280;35016;55.674;37.468;2022-07-10T21:55:15;98594.53;;;19.64;69.64
49178;BME280;35016;55.674;37.468;2022-07-10T21:57:41;98588.56;;;19.62;69.19
49178;BME280;35016;55.674;37.468;2022-07-10T22:00:09;98579.97;;;19.64;69.58
49178;BME280;35016;55.674;37.468;2022-07-10T22:02:40;98582.38;;;19.65;69.43
49178;BME280;35016;55.674;37.468;2022-07-10T22:05:07;98579.63;;;19.65;69.52
49178;BME280;35016;55.674;37.468;2022-07-10T22:07:34;98572.19;;;19.66;69.45
49178;BME280;35016;55.674;37.468;2022-07-10T22:10:01;98569.31;;;19.62;69.58
49178;BME280;35016;55.674;37.468;2022-07-10T22:12:30;98576.06;;;19.65;69.29
49178;BME280;35016;55.674;37.468;2022-07-10T22:14:57;98578.72;;;19.61;69.55
49178;BME280;35016;55.674;37.468;2022-07-10T22:17:27;98598.09;;;19.65;69.72
49178;BME280;35016;55.674;37.468;2022-07-10T22:19:57;98598.09;;;19.65;69.63
49178;BME280;35016;55.674;37.468;2022-07-10T22:22:24;98587.44;;;19.63;69.37
49178;BME280;35016;55.674;37.468;2022-07-10T22:24:51;98584.56;;;19.60;69.57
49178;BME280;35016;55.674;37.468;2022-07-10T22:27:18;98589.84;;;19.65;69.53
49178;BME280;35016;55.674;37.468;2022-07-10T22:29:45;98583.19;;;19.66;69.91
49178;BME280;35016;55.674;37.468;2022-07-10T22:32:15;98581.28;;;19.66;69.59
49178;BME280;35016;55.674;37.468;2022-07-10T22:34:42;98580.44;;;19.66;69.57
49178;BME280;35016;55.674;37.468;2022-07-10T22:37:09;98585.63;;;19.67;69.47
49178;BME280;35016;55.674;37.468;2022-07-10T22:39:36;98586.44;;;19.68;69.88
49178;BME280;35016;55.674;37.468;2022-07-10T22:42:04;98577.84;;;19.69;69.60
49178;BME280;35016;55.674;37.468;2022-07-10T22:44:34;98568.78;;;19.69;69.43
49178;BME280;35016;55.674;37.468;2022-07-10T22:47:01;98591.34;;;19.74;69.43
49178;BME280;35016;55.674;37.468;2022-07-10T22:49:28;98581.63;;;19.77;69.66
49178;BME280;35016;55.674;37.468;2022-07-10T22:51:55;98584.03;;;19.78;69.46
49178;BME280;35016;55.674;37.468;2022-07-10T22:54:23;98577.84;;;19.82;69.34
49178;BME280;35016;55.674;37.468;2022-07-10T22:56:50;98566.03;;;19.81;69.10
49178;BME280;35016;55.674;37.468;2022-07-10T22:59:17;98559.84;;;19.84;69.33
49178;BME280;35016;55.674;37.468;2022-07-10T23:01:45;98568.19;;;19.88;69.25
49178;BME280;35016;55.674;37.468;2022-07-10T23:04:15;98592.63;;;19.89;69.64
49178;BME280;35016;55.674;37.468;2022-07-10T23:06:42;98578.50;;;19.91;69.20
49178;BME280;35016;55.674;37.468;2022-07-10T23:09:09;98585.16;;;19.90;69.37
49178;BME280;35016;55.674;37.468;2022-07-10T23:11:36;98598.56;;;19.91;69.29
49178;BME280;35016;55.674;37.468;2022-07-10T23:14:06;98606.03;;;19.91;69.40
49178;BME280;35016;55.674;37.468;2022-07-10T23:16:33;98600.88;;;19.89;69.46
49178;BME280;35016;55.674;37.468;2022-07-10T23:19:00;98600.53;;;19.91;69.41
49178;BME280;35016;55.674;37.468;2022-07-10T23:21:27;98613.13;;;19.92;70.02
49178;BME280;35016;55.674;37.468;2022-07-10T23:23:54;98592.97;;;19.88;69.60
49178;BME280;35016;55.674;37.468;2022-07-10T23:26:21;98601.69;;;19.90;69.35
49178;BME280;35016;55.674;37.468;2022-07-10T23:28:48;98597.56;;;19.84;69.59
49178;BME280;35016;55.674;37.468;2022-07-10T23:31:15;98599.03;;;19.81;69.63
49178;BME280;35016;55.674;37.468;2022-07-10T23:33:42;98603.75;;;19.80;69.67
49178;BME280;35016;55.674;37.468;2022-07-10T23:36:10;98598.13;;;19.77;69.80
49178;BME280;35016;55.674;37.468;2022-07-10T23:38:37;98607.06;;;19.74;69.88
49178;BME280;35016;55.674;37.468;2022-07-10T23:41:04;98610.84;;;19.69;69.63
49178;BME280;35016;55.674;37.468;2022-07-10T23:43:31;98606.81;;;19.67;69.96
49178;BME280;35016;55.674;37.468;2022-07-10T23:45:58;98607.94;;;19.66;69.94
49178;BME280;35016;55.674;37.468;2022-07-10T23:48:25;98606.34;;;19.65;70.00
49178;BME280;35016;55.674;37.468;2022-07-10T23:51:11;98604.38;;;19.65;69.78
49178;BME280;35016;55.674;37.468;2022-07-10T23:53:38;98611.19;;;19.68;69.72
49178;BME280;35016;55.674;37.468;2022-07-10T23:56:05;98630.44;;;19.68;69.57
49178;BME280;35016;55.674;37.468;2022-07-10T23:58:33;98630.56;;;19.71;69.35
